Terminal Aerodrome Forecast
Issued by NWS Billings, MT

Home | Current Version | Previous Version | Text Only | Print | Product List | Glossary On
Versions: 1 2 3 4 5 6 7 8 9 10 11 12 13 14 15 16 17 18 19 20 21 22 23 24 25 26 27 28 29 30
000
FTUS45 KBYZ 111400 AAB
TAFBIL
TAF AMD
KBIL 111400Z 1114/1212 04015G23KT P6SM BKN018
     FM120000 06010KT P6SM VCTS SCT080CB BKN120
     FM120600 02006KT P6SM SCT100=

USA.gov is the U.S. government's official web portal to all federal, state and local government web resources and services.